createdAt,value
2023-01-13T00:00:09.140Z,113.85
2023-01-13T00:03:13.895Z,115.77
2023-01-13T00:06:17.272Z,81.35
2023-01-13T00:09:19.230Z,103.95
2023-01-13T00:12:21.519Z,112.50
2023-01-13T00:15:23.431Z,99.45
2023-01-13T00:18:25.409Z,81.75
2023-01-13T00:21:27.384Z,97.78
2023-01-13T00:24:29.304Z,90.97
2023-01-13T00:27:31.638Z,100.07
2023-01-13T00:30:34.153Z,86.35
2023-01-13T00:33:36.433Z,91.53
2023-01-13T00:36:38.330Z,83.75
2023-01-13T00:39:40.854Z,72.78
2023-01-13T00:43:01.200Z,78.65
2023-01-13T00:46:04.050Z,80.32
2023-01-13T00:49:06.034Z,74.40
2023-01-13T00:52:07.971Z,70.43
2023-01-13T00:55:09.984Z,70.20
2023-01-13T00:58:11.936Z,66.72
2023-01-13T01:01:18.267Z,70.70
2023-01-13T01:04:20.257Z,67.03
2023-01-13T01:07:22.179Z,72.43
2023-01-13T01:10:24.190Z,75.88
2023-01-13T01:13:26.126Z,69.38
2023-01-13T01:16:28.989Z,65.13
2023-01-13T01:19:31.068Z,68.57
2023-01-13T01:22:33.240Z,63.47
2023-01-13T01:25:35.174Z,57.10
2023-01-13T01:28:37.175Z,58.40
2023-01-13T01:31:39.168Z,59.35
2023-01-13T01:34:41.463Z,53.87
2023-01-13T01:37:43.388Z,67.10
2023-01-13T01:40:45.353Z,51.17
2023-01-13T01:43:59.259Z,67.38
2023-01-13T01:47:01.332Z,62.63
2023-01-13T01:50:04.172Z,60.92
2023-01-13T01:53:09.970Z,65.88
2023-01-13T01:56:12.228Z,73.03
2023-01-13T01:59:14.255Z,77.55
2023-01-13T02:02:16.358Z,72.97
2023-01-13T02:05:18.906Z,76.80
2023-01-13T02:08:20.982Z,60.67
2023-01-13T02:11:47.604Z,63.67
2023-01-13T02:14:49.578Z,73.97
2023-01-13T02:18:00.378Z,62.90
2023-01-13T02:21:14.532Z,58.17
2023-01-13T02:24:54.455Z,53.30
2023-01-13T02:27:56.656Z,71.00
2023-01-13T02:31:27.851Z,56.78
2023-01-13T02:34:36.271Z,65.30
2023-01-13T02:37:40.634Z,62.37
2023-01-13T02:40:55.749Z,62.20
2023-01-13T02:44:10.544Z,61.60
2023-01-13T02:47:16.454Z,59.53
2023-01-13T02:50:20.066Z,68.72
2023-01-13T02:53:25.213Z,62.15
2023-01-13T02:56:27.715Z,56.30
2023-01-13T02:59:30.338Z,54.63
2023-01-13T03:02:32.440Z,60.50
2023-01-13T03:05:34.619Z,46.92
2023-01-13T03:08:49.575Z,54.37
2023-01-13T03:12:17.728Z,63.47
2023-01-13T03:15:43.946Z,45.75
2023-01-13T03:18:51.698Z,34.75
2023-01-13T03:21:57.326Z,48.13
2023-01-13T03:25:03.236Z,49.50
2023-01-13T03:28:08.801Z,40.33
2023-01-13T03:31:14.171Z,44.90
2023-01-13T03:34:19.703Z,46.17
2023-01-13T03:37:23.985Z,48.42
2023-01-13T03:40:38.052Z,44.67
2023-01-13T03:44:07.925Z,48.50
2023-01-13T03:47:09.929Z,46.10
2023-01-13T03:50:20.497Z,43.22
2023-01-13T03:53:34.970Z,31.98
2023-01-13T03:56:43.189Z,41.58
2023-01-13T03:59:47.393Z,25.50
2023-01-13T04:02:51.744Z,49.90
2023-01-13T04:05:58.287Z,26.35
2023-01-13T04:09:23.291Z,51.25
2023-01-13T04:12:25.295Z,45.53
2023-01-13T04:15:29.558Z,63.92
2023-01-13T04:18:31.694Z,44.42
2023-01-13T04:21:34.364Z,41.33
2023-01-13T04:24:37.292Z,42.10
2023-01-13T04:27:39.333Z,51.58
2023-01-13T04:30:42.301Z,41.60
2023-01-13T04:33:44.399Z,56.10
2023-01-13T04:36:46.580Z,71.38
2023-01-13T04:39:48.659Z,55.55
2023-01-13T04:42:50.664Z,64.53
2023-01-13T04:45:52.741Z,52.85
2023-01-13T04:48:54.765Z,54.08
2023-01-13T04:51:56.778Z,46.30
2023-01-13T04:54:58.774Z,22.23
2023-01-13T04:58:05.046Z,58.13
2023-01-13T05:01:07.128Z,55.20
2023-01-13T05:04:11.540Z,44.27
2023-01-13T05:07:13.792Z,42.08
2023-01-13T05:10:16.012Z,35.90
2023-01-13T05:13:36.335Z,53.53
2023-01-13T05:16:56.895Z,62.33
2023-01-13T05:19:58.937Z,40.25
2023-01-13T05:23:19.177Z,44.25
2023-01-13T05:26:22.846Z,23.05
2023-01-13T05:29:24.830Z,41.88
2023-01-13T05:32:29.857Z,29.15
2023-01-13T05:35:31.881Z,22.83
2023-01-13T05:38:33.993Z,35.42
2023-01-13T05:41:54.505Z,37.95
2023-01-13T05:44:56.510Z,33.77
2023-01-13T05:47:58.791Z,42.47
2023-01-13T05:51:01.454Z,48.45
2023-01-13T05:54:03.572Z,40.13
2023-01-13T05:57:05.615Z,36.03
2023-01-13T06:00:08.565Z,38.15
2023-01-13T06:03:16.960Z,41.78
2023-01-13T06:06:19.039Z,36.10
2023-01-13T06:09:22.731Z,36.38
2023-01-13T06:12:24.903Z,43.97
2023-01-13T06:15:27.053Z,25.87
2023-01-13T06:18:29.531Z,35.35
2023-01-13T06:21:33.092Z,33.13
2023-01-13T06:24:35.713Z,39.55
2023-01-13T06:27:37.944Z,30.35
2023-01-13T06:30:42.595Z,39.53
2023-01-13T06:33:49.661Z,33.88
2023-01-13T06:36:53.935Z,36.87
2023-01-13T06:39:58.691Z,33.30
2023-01-13T06:43:16.708Z,36.33
2023-01-13T06:46:19.210Z,16.17
2023-01-13T06:49:21.944Z,52.70
2023-01-13T06:52:24.683Z,44.70
2023-01-13T06:55:26.788Z,51.47
2023-01-13T06:58:28.903Z,22.27
2023-01-13T07:01:31.713Z,59.35
2023-01-13T07:04:33.924Z,49.88
2023-01-13T07:07:36.209Z,37.27
2023-01-13T07:10:38.724Z,52.13
2023-01-13T07:13:59.594Z,36.13
2023-01-13T07:17:01.744Z,33.23
2023-01-13T07:20:04.020Z,31.60
2023-01-13T07:23:06.154Z,38.88
2023-01-13T07:26:08.920Z,42.67
2023-01-13T07:29:11.232Z,43.13
2023-01-13T07:32:13.392Z,25.48
2023-01-13T07:35:15.687Z,40.75
2023-01-13T07:38:17.719Z,26.80
2023-01-13T07:41:38.388Z,26.30
2023-01-13T07:44:40.449Z,44.20
2023-01-13T07:47:42.989Z,24.30
2023-01-13T07:50:46.463Z,32.03
2023-01-13T07:53:49.333Z,29.52
2023-01-13T07:56:52.964Z,33.67
2023-01-13T07:59:56.088Z,34.72
2023-01-13T08:02:59.951Z,57.45
2023-01-13T08:06:02.378Z,43.80
2023-01-13T08:09:05.255Z,45.50
2023-01-13T08:12:26.160Z,20.13
2023-01-13T08:15:29.857Z,41.00
2023-01-13T08:18:32.603Z,44.93
2023-01-13T08:21:35.044Z,31.80
2023-01-13T08:24:37.155Z,36.65
2023-01-13T08:27:39.335Z,19.42
2023-01-13T08:30:41.913Z,59.40
2023-01-13T08:33:44.198Z,45.10
2023-01-13T08:36:46.295Z,41.78
2023-01-13T08:39:48.969Z,50.20
2023-01-13T08:42:53.126Z,35.25
2023-01-13T08:45:59.679Z,30.80
2023-01-13T08:49:02.173Z,31.60
2023-01-13T08:52:04.869Z,29.63
2023-01-13T08:55:07.220Z,47.30
2023-01-13T08:58:15.770Z,52.50
2023-01-13T09:01:20.505Z,28.40
2023-01-13T09:04:23.815Z,44.22
2023-01-13T09:07:26.119Z,33.58
2023-01-13T09:10:28.184Z,33.10
2023-01-13T09:13:30.293Z,36.05
2023-01-13T09:16:32.340Z,30.35
2023-01-13T09:19:34.957Z,45.63
2023-01-13T09:22:38.176Z,38.03
2023-01-13T09:25:40.599Z,30.73
2023-01-13T09:28:42.746Z,40.97
2023-01-13T09:31:44.874Z,19.67
2023-01-13T09:35:02.324Z,49.45
2023-01-13T09:38:04.635Z,48.10
2023-01-13T09:41:26.792Z,54.80
2023-01-13T09:44:51.425Z,39.72
2023-01-13T09:47:57.804Z,37.25
2023-01-13T09:51:06.211Z,36.27
2023-01-13T09:54:13.710Z,36.00
2023-01-13T09:57:17.103Z,58.80
2023-01-13T10:00:19.199Z,43.15
2023-01-13T10:03:23.822Z,59.28
2023-01-13T10:06:33.468Z,67.38
2023-01-13T10:09:41.733Z,53.25
2023-01-13T10:13:03.710Z,52.37
2023-01-13T10:16:11.984Z,45.72
2023-01-13T10:19:19.072Z,23.60
2023-01-13T10:22:39.571Z,56.67
2023-01-13T10:25:41.739Z,50.13
2023-01-13T10:28:50.984Z,58.05
2023-01-13T10:31:53.906Z,35.17
2023-01-13T10:34:58.947Z,51.53
2023-01-13T10:38:01.716Z,56.40
2023-01-13T10:41:04.106Z,52.05
2023-01-13T10:44:13.899Z,64.23
2023-01-13T10:47:24.522Z,31.58
2023-01-13T10:50:28.928Z,72.25
2023-01-13T10:53:31.185Z,53.37
2023-01-13T10:56:33.981Z,47.85
2023-01-13T10:59:36.088Z,46.10
2023-01-13T11:02:38.942Z,35.95
2023-01-13T11:05:47.870Z,41.92
2023-01-13T11:08:50.787Z,49.70
2023-01-13T11:11:56.172Z,33.03
2023-01-13T11:15:00.104Z,47.97
2023-01-13T11:18:05.254Z,53.42
2023-01-13T11:21:11.064Z,52.92
2023-01-13T11:24:18.670Z,56.50
2023-01-13T11:27:20.842Z,59.95
2023-01-13T11:30:29.796Z,52.67
2023-01-13T11:33:36.395Z,56.97
2023-01-13T11:36:50.934Z,54.38
2023-01-13T11:40:03.966Z,51.88
2023-01-13T11:43:29.187Z,46.67
2023-01-13T11:46:32.695Z,47.47
2023-01-13T11:49:35.630Z,38.53
2023-01-13T11:52:37.620Z,42.08
2023-01-13T11:55:54.898Z,49.17
2023-01-13T11:58:59.691Z,48.15
2023-01-13T12:02:20.510Z,50.33
2023-01-13T12:05:26.831Z,38.25
2023-01-13T12:08:28.899Z,44.50
2023-01-13T12:11:33.253Z,53.78
2023-01-13T12:14:56.544Z,44.08
2023-01-13T12:18:17.051Z,49.00
2023-01-13T12:21:21.127Z,43.80
2023-01-13T12:24:32.438Z,47.92
2023-01-13T12:27:34.431Z,51.13
2023-01-13T12:30:40.303Z,48.67
2023-01-13T12:33:59.302Z,50.55
2023-01-13T12:37:07.249Z,46.58
2023-01-13T12:40:21.828Z,44.58
2023-01-13T12:43:43.151Z,43.75
2023-01-13T12:46:45.241Z,45.40
2023-01-13T12:49:47.388Z,39.47
2023-01-13T12:52:50.518Z,39.30
2023-01-13T12:55:53.440Z,46.10
2023-01-13T12:59:14.439Z,43.77
2023-01-13T13:02:43.071Z,44.08
2023-01-13T13:06:03.929Z,40.55
2023-01-13T13:09:13.682Z,41.70
2023-01-13T13:12:49.686Z,77.68
2023-01-13T13:15:51.995Z,47.45
2023-01-13T13:19:14.168Z,40.70
2023-01-13T13:22:18.130Z,56.10
2023-01-13T13:25:21.567Z,33.80
2023-01-13T13:28:23.966Z,38.15
2023-01-13T13:31:32.850Z,31.23
2023-01-13T13:34:34.875Z,35.10
2023-01-13T13:38:09.374Z,30.88
2023-01-13T13:41:32.261Z,22.10
2023-01-13T13:44:55.705Z,25.33
2023-01-13T13:47:57.848Z,28.73
2023-01-13T13:51:05.923Z,30.58
2023-01-13T13:54:14.044Z,36.27
2023-01-13T13:57:20.269Z,42.55
2023-01-13T14:00:24.456Z,33.65
2023-01-13T14:03:30.327Z,33.60
2023-01-13T14:06:32.987Z,35.00
2023-01-13T14:09:45.906Z,34.03
2023-01-13T14:12:47.951Z,36.80
2023-01-13T14:15:55.327Z,34.25
2023-01-13T14:18:57.378Z,35.55
2023-01-13T14:22:01.928Z,35.22
2023-01-13T14:25:24.083Z,33.67
2023-01-13T14:28:34.597Z,36.00
2023-01-13T14:31:38.391Z,35.00
2023-01-13T14:34:40.459Z,39.47
2023-01-13T14:37:43.075Z,51.00
2023-01-13T14:40:46.801Z,57.28
2023-01-13T14:43:49.580Z,39.95
2023-01-13T14:46:51.978Z,43.03
2023-01-13T14:49:57.004Z,34.08
2023-01-13T14:53:00.802Z,50.05
2023-01-13T14:56:21.468Z,59.47
2023-01-13T14:59:51.925Z,50.30
2023-01-13T15:02:56.933Z,48.88
2023-01-13T15:05:59.030Z,44.77
2023-01-13T15:09:01.003Z,49.58
2023-01-13T15:12:15.465Z,36.63
2023-01-13T15:15:37.151Z,35.42
2023-01-13T15:18:41.243Z,38.85
2023-01-13T15:21:43.333Z,44.20
2023-01-13T15:24:46.108Z,50.20
2023-01-13T15:27:51.825Z,45.17
2023-01-13T15:30:54.796Z,71.78
2023-01-13T15:33:58.817Z,63.10
2023-01-13T15:37:00.974Z,68.00
2023-01-13T15:40:03.422Z,57.92
2023-01-13T15:43:23.931Z,52.25
2023-01-13T15:46:38.466Z,53.20
2023-01-13T15:49:42.330Z,55.25
2023-01-13T15:52:44.505Z,63.78
2023-01-13T15:55:47.297Z,62.53
2023-01-13T15:58:49.349Z,65.53
2023-01-13T16:01:51.434Z,64.65
2023-01-13T16:04:54.539Z,78.65
2023-01-13T16:07:56.669Z,91.97
2023-01-13T16:10:58.696Z,85.57
2023-01-13T16:14:00.740Z,71.63
2023-01-13T16:17:03.684Z,83.05
2023-01-13T16:20:06.278Z,82.40
2023-01-13T16:23:08.249Z,91.53
2023-01-13T16:26:17.475Z,109.50
2023-01-13T16:29:19.544Z,104.77
2023-01-13T16:32:21.566Z,102.55
2023-01-13T16:35:24.420Z,91.22
2023-01-13T16:38:26.453Z,105.10
2023-01-13T16:41:28.499Z,101.55
2023-01-13T16:44:30.589Z,121.88
2023-01-13T16:47:32.604Z,94.80
2023-01-13T16:50:41.695Z,101.55
2023-01-13T16:53:43.946Z,76.47
2023-01-13T16:56:45.974Z,70.70
2023-01-13T16:59:48.105Z,64.30
2023-01-13T17:02:50.430Z,56.85
2023-01-13T17:05:52.564Z,50.75
2023-01-13T17:08:54.805Z,61.83
2023-01-13T17:11:57.032Z,107.90
2023-01-13T17:14:59.013Z,75.57
2023-01-13T17:18:01.336Z,55.88
2023-01-13T17:21:03.392Z,60.60
2023-01-13T17:24:08.128Z,48.95
2023-01-13T17:27:10.191Z,58.80
2023-01-13T17:30:14.567Z,62.33
2023-01-13T17:33:16.626Z,82.65
2023-01-13T17:36:18.653Z,56.88
2023-01-13T17:39:22.347Z,56.67
2023-01-13T17:42:27.835Z,60.35
2023-01-13T17:45:29.931Z,58.90
2023-01-13T17:48:31.988Z,60.83
2023-01-13T17:51:34.069Z,84.18
2023-01-13T17:54:36.213Z,73.00
2023-01-13T17:57:38.244Z,85.93
2023-01-13T18:00:40.657Z,62.17
2023-01-13T18:03:42.912Z,90.25
2023-01-13T18:06:45.610Z,92.60
2023-01-13T18:09:47.833Z,87.40
2023-01-13T18:12:49.841Z,76.55
2023-01-13T18:15:59.541Z,70.65
2023-01-13T18:19:27.608Z,60.40
2023-01-13T18:22:47.950Z,62.85
2023-01-13T18:26:08.401Z,73.78
2023-01-13T18:29:10.407Z,65.45
2023-01-13T18:32:12.393Z,67.20
2023-01-13T18:35:14.408Z,60.92
2023-01-13T18:38:28.572Z,59.53
2023-01-13T18:41:49.110Z,48.83
2023-01-13T18:44:52.567Z,50.28
2023-01-13T18:47:55.251Z,51.25
2023-01-13T18:50:57.230Z,43.53
2023-01-13T18:53:59.269Z,37.28
2023-01-13T18:57:02.837Z,40.33
2023-01-13T19:00:05.101Z,28.02
2023-01-13T19:06:12.746Z,39.03
2023-01-13T19:09:16.128Z,38.60
2023-01-13T19:12:26.027Z,38.67
2023-01-13T19:15:28.126Z,37.35
2023-01-13T19:18:30.164Z,39.97
2023-01-13T19:21:32.219Z,47.35
2023-01-13T19:24:34.285Z,47.20
2023-01-13T19:27:36.376Z,51.10
2023-01-13T19:30:38.391Z,51.67
2023-01-13T19:33:40.444Z,54.00
2023-01-13T19:36:42.445Z,51.15
2023-01-13T19:39:44.494Z,53.75
2023-01-13T19:43:05.038Z,50.87
2023-01-13T19:46:07.403Z,55.55
2023-01-13T19:49:11.315Z,56.83
2023-01-13T19:52:13.547Z,60.58
2023-01-13T19:55:15.528Z,60.08
2023-01-13T19:58:20.694Z,57.80
2023-01-13T20:01:30.366Z,41.25
2023-01-13T20:04:38.684Z,46.03
2023-01-13T20:07:40.717Z,48.97
2023-01-13T20:10:44.257Z,67.30
2023-01-13T20:13:46.255Z,60.53
2023-01-13T20:16:48.401Z,59.28
2023-01-13T20:19:50.431Z,47.35
2023-01-13T20:22:52.500Z,51.92
2023-01-13T20:25:54.488Z,49.13
2023-01-13T20:28:56.510Z,67.57
2023-01-13T20:31:58.553Z,81.15
2023-01-13T20:35:00.570Z,79.97
2023-01-13T20:38:02.595Z,50.20
2023-01-13T20:41:25.895Z,41.65
2023-01-13T20:44:28.193Z,42.90
2023-01-13T20:47:30.713Z,44.83
2023-01-13T20:50:32.722Z,38.42
2023-01-13T20:53:34.789Z,47.95
2023-01-13T20:56:37.300Z,54.88
2023-01-13T20:59:39.661Z,49.63
2023-01-13T21:02:41.947Z,44.28
2023-01-13T21:05:43.946Z,47.97
2023-01-13T21:08:49.861Z,46.65
2023-01-13T21:12:10.766Z,42.00
2023-01-13T21:15:19.808Z,46.70
2023-01-13T21:18:40.426Z,42.25
2023-01-13T21:21:42.567Z,43.97
2023-01-13T21:24:44.627Z,51.40
2023-01-13T21:27:46.711Z,47.45
2023-01-13T21:30:50.075Z,49.42
2023-01-13T21:33:55.807Z,100.95
2023-01-13T21:36:57.859Z,51.07
2023-01-13T21:39:59.806Z,50.88
2023-01-13T21:43:20.587Z,47.65
2023-01-13T21:46:42.127Z,50.80
2023-01-13T21:49:44.692Z,40.45
2023-01-13T21:52:48.548Z,45.95
2023-01-13T21:55:52.451Z,43.70
2023-01-13T21:58:57.294Z,52.10
2023-01-13T22:02:23.809Z,50.83
2023-01-13T22:05:26.888Z,49.28
2023-01-13T22:08:28.919Z,48.50
2023-01-13T22:11:32.297Z,56.92
2023-01-13T22:14:35.330Z,59.38
2023-01-13T22:17:37.472Z,55.57
2023-01-13T22:20:41.328Z,52.67
2023-01-13T22:23:43.462Z,61.78
2023-01-13T22:26:45.502Z,60.30
2023-01-13T22:29:47.744Z,65.55
2023-01-13T22:32:50.216Z,71.53
2023-01-13T22:35:55.677Z,69.38
2023-01-13T22:38:58.556Z,74.10
2023-01-13T22:42:00.793Z,73.90
2023-01-13T22:45:03.712Z,58.15
2023-01-13T22:48:05.742Z,58.57
2023-01-13T22:51:08.801Z,59.85
2023-01-13T22:54:11.544Z,52.15
2023-01-13T22:57:13.567Z,60.03
2023-01-13T23:00:18.952Z,50.50
2023-01-13T23:03:21.544Z,58.17
2023-01-13T23:06:24.954Z,54.55
2023-01-13T23:09:29.964Z,60.30
2023-01-13T23:12:31.969Z,63.45
2023-01-13T23:15:34.647Z,61.70
2023-01-13T23:18:36.609Z,70.33
2023-01-13T23:21:38.689Z,73.15
2023-01-13T23:24:40.709Z,69.57
2023-01-13T23:27:42.834Z,64.03
2023-01-13T23:30:45.091Z,56.50
2023-01-13T23:33:47.381Z,60.70
2023-01-13T23:36:49.445Z,54.30
2023-01-13T23:39:51.489Z,60.17
2023-01-13T23:42:53.485Z,56.58
2023-01-13T23:46:08.934Z,61.72
2023-01-13T23:49:10.956Z,47.37
2023-01-13T23:52:12.956Z,64.78
2023-01-13T23:55:14.994Z,62.50
2023-01-13T23:58:17.073Z,68.47
